createdAt,value
2017-07-28T00:00:03.023Z,83.70
2017-07-28T00:02:30.612Z,83.60
2017-07-28T00:04:58.159Z,83.70
2017-07-28T00:07:25.739Z,83.80
2017-07-28T00:09:53.279Z,83.90
2017-07-28T00:12:21.180Z,83.90
2017-07-28T00:14:48.749Z,84.00
2017-07-28T00:17:16.286Z,84.10
2017-07-28T00:19:43.851Z,84.10
2017-07-28T00:22:11.441Z,84.10
2017-07-28T00:24:39.386Z,84.10
2017-07-28T00:27:06.928Z,84.00
2017-07-28T00:29:34.478Z,84.00
2017-07-28T00:32:02.052Z,84.10
2017-07-28T00:34:29.601Z,84.20
2017-07-28T00:36:57.469Z,84.20
2017-07-28T00:39:25.085Z,84.20
2017-07-28T00:41:52.641Z,84.30
2017-07-28T00:44:20.199Z,84.30
2017-07-28T00:46:47.752Z,84.20
2017-07-28T00:49:15.743Z,84.20
2017-07-28T00:51:44.045Z,84.00
2017-07-28T00:54:11.592Z,84.20
2017-07-28T00:56:39.933Z,83.90
2017-07-28T00:59:07.480Z,84.00
2017-07-28T01:01:35.351Z,84.00
2017-07-28T01:04:02.905Z,84.00
2017-07-28T01:06:30.445Z,84.10
2017-07-28T01:08:58.016Z,84.20
2017-07-28T01:11:25.565Z,83.90
2017-07-28T01:13:53.485Z,83.70
2017-07-28T01:16:21.019Z,83.90
2017-07-28T01:18:48.540Z,83.80
2017-07-28T01:21:16.101Z,83.80
2017-07-28T01:23:43.662Z,83.90
2017-07-28T01:26:11.558Z,83.70
2017-07-28T01:28:39.084Z,83.80
2017-07-28T01:31:06.624Z,83.80
2017-07-28T01:33:34.941Z,84.70
2017-07-28T01:36:02.457Z,83.80
2017-07-28T01:38:31.086Z,83.70
2017-07-28T01:40:58.623Z,83.70
2017-07-28T01:43:26.149Z,83.80
2017-07-28T01:45:54.504Z,84.60
2017-07-28T01:48:22.048Z,83.80
2017-07-28T01:50:49.888Z,83.90
2017-07-28T01:53:17.475Z,84.00
2017-07-28T01:55:45.023Z,84.10
2017-07-28T01:58:12.589Z,84.10
2017-07-28T02:00:40.336Z,84.10
2017-07-28T02:03:08.240Z,84.10
2017-07-28T02:05:35.798Z,84.10
2017-07-28T02:08:03.347Z,84.10
2017-07-28T02:10:30.952Z,84.20
2017-07-28T02:12:58.490Z,84.20
2017-07-28T02:15:26.470Z,84.20
2017-07-28T02:17:54.005Z,84.30
2017-07-28T02:20:21.516Z,84.40
2017-07-28T02:22:49.855Z,84.50
2017-07-28T02:25:18.144Z,84.40
2017-07-28T02:27:45.993Z,84.40
2017-07-28T02:30:13.532Z,84.60
2017-07-28T02:32:41.054Z,84.60
2017-07-28T02:35:09.405Z,84.50
2017-07-28T02:37:36.967Z,84.50
2017-07-28T02:40:04.814Z,84.40
2017-07-28T02:42:32.362Z,84.50
2017-07-28T02:44:59.875Z,84.50
2017-07-28T02:47:28.223Z,84.80
2017-07-28T02:49:55.752Z,84.40
2017-07-28T02:52:23.668Z,84.30
2017-07-28T02:54:51.199Z,85.10
2017-07-28T02:57:18.758Z,84.40
2017-07-28T02:59:46.335Z,84.40
2017-07-28T03:02:13.889Z,84.40
2017-07-28T03:04:41.755Z,84.40
2017-07-28T03:07:09.311Z,84.40
2017-07-28T03:09:36.844Z,84.30
2017-07-28T03:12:05.191Z,84.20
2017-07-28T03:14:32.734Z,84.20
2017-07-28T03:17:00.586Z,84.20
2017-07-28T03:19:28.117Z,84.00
2017-07-28T03:21:55.648Z,83.60
2017-07-28T03:24:23.986Z,83.20
2017-07-28T03:26:51.517Z,83.20
2017-07-28T03:29:19.425Z,83.10
2017-07-28T03:31:46.963Z,83.00
2017-07-28T03:34:14.509Z,82.90
2017-07-28T03:36:42.492Z,82.80
2017-07-28T03:39:10.060Z,82.60
2017-07-28T03:41:37.945Z,82.90
2017-07-28T03:44:05.467Z,83.10
2017-07-28T03:46:32.982Z,83.20
2017-07-28T03:49:01.344Z,82.70
2017-07-28T03:51:28.862Z,82.70
2017-07-28T03:53:56.765Z,82.50
2017-07-28T03:56:24.328Z,82.40
2017-07-28T03:58:51.854Z,82.40
2017-07-28T04:01:19.430Z,82.30
2017-07-28T04:03:46.989Z,82.20
2017-07-28T04:06:14.811Z,82.50
2017-07-28T04:08:43.132Z,82.80
2017-07-28T04:11:10.705Z,82.20
2017-07-28T04:13:38.266Z,82.20
2017-07-28T04:16:05.812Z,82.20
2017-07-28T04:18:33.648Z,82.30
2017-07-28T04:21:01.200Z,82.50
2017-07-28T04:23:28.776Z,82.50
2017-07-28T04:25:57.815Z,82.60
2017-07-28T04:28:25.350Z,82.60
2017-07-28T04:30:53.249Z,82.70
2017-07-28T04:33:20.789Z,82.60
2017-07-28T04:35:48.333Z,82.70
2017-07-28T04:38:15.909Z,82.60
2017-07-28T04:40:43.453Z,82.40
2017-07-28T04:43:11.285Z,82.20
2017-07-28T04:45:39.587Z,81.80
2017-07-28T04:48:07.144Z,81.80
2017-07-28T04:50:34.713Z,81.40
2017-07-28T04:53:02.268Z,80.90
2017-07-28T04:55:30.192Z,80.70
2017-07-28T04:57:57.736Z,80.50
2017-07-28T05:00:25.266Z,80.50
2017-07-28T05:02:52.811Z,80.40
2017-07-28T05:05:21.097Z,80.10
2017-07-28T05:07:49.028Z,80.10
2017-07-28T05:10:16.653Z,79.90
2017-07-28T05:12:44.189Z,79.60
2017-07-28T05:15:11.747Z,79.40
2017-07-28T05:17:40.072Z,79.50
2017-07-28T05:20:07.958Z,79.50
2017-07-28T05:22:35.498Z,79.40
2017-07-28T05:25:03.027Z,79.40
2017-07-28T05:27:30.604Z,79.30
2017-07-28T05:29:58.167Z,79.20
2017-07-28T05:32:26.038Z,79.10
2017-07-28T05:34:53.566Z,79.00
2017-07-28T05:37:21.105Z,79.30
2017-07-28T05:39:49.445Z,79.50
2017-07-28T05:42:17.006Z,79.60
2017-07-28T05:44:44.871Z,79.70
2017-07-28T05:47:12.439Z,79.70
2017-07-28T05:49:40.083Z,79.90
2017-07-28T05:52:07.646Z,80.00
2017-07-28T05:54:35.198Z,78.70
2017-07-28T05:57:03.101Z,78.00
2017-07-28T05:59:30.635Z,77.70
2017-07-28T06:01:58.171Z,77.60
2017-07-28T06:04:25.731Z,77.30
2017-07-28T06:06:53.263Z,77.20
2017-07-28T06:09:21.930Z,77.10
2017-07-28T06:11:49.473Z,77.10
2017-07-28T06:14:17.025Z,77.00
2017-07-28T06:16:44.597Z,77.00
2017-07-28T06:19:12.138Z,76.90
2017-07-28T06:21:40.006Z,76.90
2017-07-28T06:24:08.088Z,76.30
2017-07-28T06:26:35.612Z,75.90
2017-07-28T06:29:03.200Z,75.50
2017-07-28T06:31:30.754Z,74.70
2017-07-28T06:33:58.598Z,74.80
2017-07-28T06:36:26.973Z,74.40
2017-07-28T06:38:55.262Z,74.20
2017-07-28T06:41:22.807Z,74.30
2017-07-28T06:43:50.401Z,74.20
2017-07-28T06:46:18.302Z,73.80
2017-07-28T06:48:46.627Z,73.70
2017-07-28T06:51:14.192Z,73.80
2017-07-28T06:53:41.824Z,73.50
2017-07-28T06:56:10.202Z,72.40
2017-07-28T06:58:38.073Z,72.30
2017-07-28T07:01:06.449Z,72.40
2017-07-28T07:03:34.783Z,72.30
2017-07-28T07:06:02.344Z,72.30
2017-07-28T07:08:29.900Z,71.80
2017-07-28T07:10:57.762Z,71.10
2017-07-28T07:13:25.299Z,70.90
2017-07-28T07:15:52.840Z,70.70
2017-07-28T07:18:21.183Z,69.80
2017-07-28T07:20:48.736Z,69.80
2017-07-28T07:23:16.573Z,69.90
2017-07-28T07:25:44.113Z,69.90
2017-07-28T07:28:12.424Z,68.90
2017-07-28T07:30:40.008Z,68.60
2017-07-28T07:33:07.559Z,68.60
2017-07-28T07:35:35.549Z,68.50
2017-07-28T07:38:03.095Z,68.90
2017-07-28T07:40:30.659Z,68.00
2017-07-28T07:42:58.251Z,67.60
2017-07-28T07:45:25.798Z,68.00
2017-07-28T07:47:53.623Z,67.60
2017-07-28T07:50:21.165Z,67.60
2017-07-28T07:52:49.472Z,67.70
2017-07-28T07:55:17.831Z,68.00
2017-07-28T07:57:45.367Z,68.00
2017-07-28T08:00:13.445Z,67.70
2017-07-28T08:02:41.031Z,68.00
2017-07-28T08:05:08.572Z,67.50
2017-07-28T08:07:36.881Z,67.50
2017-07-28T08:10:04.416Z,67.30
2017-07-28T08:12:32.315Z,66.80
2017-07-28T08:14:59.844Z,66.40
2017-07-28T08:17:27.385Z,66.00
2017-07-28T08:19:55.733Z,64.80
2017-07-28T08:22:23.263Z,64.80
2017-07-28T08:24:51.075Z,64.90
2017-07-28T08:27:18.621Z,65.20
2017-07-28T08:29:46.157Z,65.30
2017-07-28T08:32:13.748Z,64.60
2017-07-28T08:34:41.295Z,64.10
2017-07-28T08:37:09.249Z,63.70
2017-07-28T08:39:36.811Z,63.30
2017-07-28T08:42:04.357Z,63.10
2017-07-28T08:44:31.939Z,62.80
2017-07-28T08:46:59.477Z,62.50
2017-07-28T08:49:27.337Z,61.90
2017-07-28T08:51:54.910Z,61.20
2017-07-28T08:54:22.445Z,61.10
2017-07-28T08:56:50.017Z,61.50
2017-07-28T08:59:17.579Z,61.40
2017-07-28T09:01:45.481Z,60.80
2017-07-28T09:04:13.111Z,60.60
2017-07-28T09:06:40.662Z,60.50
2017-07-28T09:09:08.220Z,60.00
2017-07-28T09:11:36.530Z,59.60
2017-07-28T09:14:04.349Z,59.60
2017-07-28T09:16:32.668Z,59.60
2017-07-28T09:19:00.210Z,59.60
2017-07-28T09:21:27.774Z,59.20
2017-07-28T09:23:55.318Z,58.70
2017-07-28T09:26:23.958Z,57.60
2017-07-28T09:28:51.481Z,57.50
2017-07-28T09:31:19.063Z,57.20
2017-07-28T09:33:46.675Z,57.20
2017-07-28T09:36:14.969Z,56.30
2017-07-28T09:38:42.821Z,56.30
2017-07-28T09:41:11.118Z,55.90
2017-07-28T09:43:38.673Z,55.90
2017-07-28T09:46:06.999Z,55.10
2017-07-28T09:48:34.533Z,55.10
2017-07-28T09:51:02.467Z,54.70
2017-07-28T09:53:30.037Z,54.60
2017-07-28T09:55:57.577Z,53.70
2017-07-28T09:58:25.910Z,52.60
2017-07-28T10:00:53.439Z,52.60
2017-07-28T10:03:22.056Z,52.40
2017-07-28T10:05:49.604Z,52.50
2017-07-28T10:08:17.206Z,52.50
2017-07-28T10:10:44.815Z,52.00
2017-07-28T10:13:12.359Z,51.40
2017-07-28T10:15:40.284Z,51.10
2017-07-28T10:18:07.817Z,51.10
2017-07-28T10:20:35.346Z,51.50
2017-07-28T10:23:03.990Z,51.00
2017-07-28T10:25:31.534Z,50.90
2017-07-28T10:27:59.070Z,50.80
2017-07-28T10:30:26.636Z,50.20
2017-07-28T10:32:54.184Z,50.20
2017-07-28T10:35:22.131Z,49.30
2017-07-28T10:37:49.704Z,49.00
2017-07-28T10:40:17.231Z,49.70
2017-07-28T10:42:44.836Z,48.80
2017-07-28T10:45:12.380Z,48.60
2017-07-28T10:47:41.000Z,47.90
2017-07-28T10:50:08.528Z,47.80
2017-07-28T10:52:36.070Z,48.00
2017-07-28T10:55:03.692Z,47.60
2017-07-28T10:57:31.237Z,47.00
2017-07-28T10:59:59.143Z,46.40
2017-07-28T11:02:26.675Z,46.20
2017-07-28T11:04:54.275Z,46.20
2017-07-28T11:07:21.868Z,46.60
2017-07-28T11:09:49.419Z,46.60
2017-07-28T11:12:17.349Z,46.30
2017-07-28T11:14:44.892Z,46.10
2017-07-28T11:17:12.438Z,45.80
2017-07-28T11:19:39.991Z,45.60
2017-07-28T11:22:07.517Z,45.30
2017-07-28T11:24:35.401Z,45.20
2017-07-28T11:27:03.694Z,44.60
2017-07-28T11:29:31.224Z,44.60
2017-07-28T11:31:58.798Z,44.30
2017-07-28T11:34:27.123Z,44.50
2017-07-28T11:36:54.993Z,44.40
2017-07-28T11:39:22.594Z,44.20
2017-07-28T11:41:50.111Z,42.80
2017-07-28T11:44:17.665Z,41.60
2017-07-28T11:46:45.227Z,41.30
2017-07-28T11:49:13.695Z,40.90
2017-07-28T11:51:41.239Z,40.90
2017-07-28T11:54:09.343Z,39.70
2017-07-28T11:56:36.921Z,39.10
2017-07-28T11:59:04.465Z,38.50
2017-07-28T12:01:32.318Z,38.30
2017-07-28T12:03:59.871Z,38.20
2017-07-28T12:06:27.415Z,38.40
2017-07-28T12:08:55.777Z,39.30
2017-07-28T12:11:23.295Z,39.20
2017-07-28T12:13:51.117Z,39.40
2017-07-28T12:16:19.410Z,39.00
2017-07-28T12:18:46.949Z,39.00
2017-07-28T12:21:15.277Z,40.10
2017-07-28T12:23:42.837Z,39.80
2017-07-28T12:26:11.027Z,40.30
2017-07-28T12:28:38.570Z,40.20
2017-07-28T12:31:06.135Z,40.50
2017-07-28T12:33:33.688Z,41.10
2017-07-28T12:36:01.229Z,41.50
2017-07-28T12:38:29.143Z,41.60
2017-07-28T12:40:56.681Z,41.90
2017-07-28T12:43:24.217Z,42.30
2017-07-28T12:45:51.801Z,42.30
2017-07-28T12:48:19.349Z,41.70
2017-07-28T12:50:47.174Z,41.50
2017-07-28T12:53:14.714Z,41.40
2017-07-28T12:55:42.261Z,41.30
2017-07-28T12:58:09.839Z,41.30
2017-07-28T13:00:37.368Z,41.40
2017-07-28T13:03:05.266Z,41.60
2017-07-28T13:05:32.808Z,41.30
2017-07-28T13:08:00.352Z,41.00
2017-07-28T13:10:27.931Z,41.30
2017-07-28T13:12:55.464Z,41.10
2017-07-28T13:15:23.362Z,39.80
2017-07-28T13:17:50.888Z,39.30
2017-07-28T13:20:18.437Z,38.60
2017-07-28T13:22:46.010Z,37.90
2017-07-28T13:25:13.548Z,36.40
2017-07-28T13:27:42.232Z,36.20
2017-07-28T13:30:09.795Z,36.10
2017-07-28T13:32:37.351Z,36.90
2017-07-28T13:35:04.942Z,37.80
2017-07-28T13:37:32.491Z,37.40
2017-07-28T13:40:00.367Z,37.50
2017-07-28T13:42:27.887Z,36.70
2017-07-28T13:44:55.440Z,37.40
2017-07-28T13:47:23.018Z,38.20
2017-07-28T13:49:51.325Z,40.30
2017-07-28T13:52:19.154Z,39.70
2017-07-28T13:54:47.467Z,40.30
2017-07-28T13:57:15.001Z,40.10
2017-07-28T13:59:43.345Z,37.80
2017-07-28T14:02:10.994Z,37.70
2017-07-28T14:04:38.934Z,36.50
2017-07-28T14:07:06.480Z,35.80
2017-07-28T14:09:34.775Z,34.10
2017-07-28T14:12:02.363Z,34.00
2017-07-28T14:14:29.905Z,34.60
2017-07-28T14:16:57.837Z,35.00
2017-07-28T14:19:26.137Z,35.80
2017-07-28T14:21:53.700Z,35.10
2017-07-28T14:24:21.268Z,34.90
2017-07-28T14:26:49.043Z,34.80
2017-07-28T14:29:16.962Z,35.40
2017-07-28T14:31:44.476Z,34.70
2017-07-28T14:34:12.023Z,34.20
2017-07-28T14:36:39.578Z,34.70
2017-07-28T14:39:07.116Z,33.80
2017-07-28T14:41:35.764Z,33.50
2017-07-28T14:44:03.290Z,32.80
2017-07-28T14:46:30.819Z,31.50
2017-07-28T14:48:59.152Z,31.40
2017-07-28T14:51:26.692Z,31.30
2017-07-28T14:53:54.646Z,31.80
2017-07-28T14:56:22.208Z,32.00
2017-07-28T14:58:49.755Z,31.00
2017-07-28T15:01:18.142Z,29.90
2017-07-28T15:03:45.710Z,29.90
2017-07-28T15:06:13.711Z,30.80
2017-07-28T15:08:41.366Z,31.50
2017-07-28T15:11:08.938Z,31.50
2017-07-28T15:13:36.514Z,31.10
2017-07-28T15:16:04.088Z,31.40
2017-07-28T15:18:31.938Z,31.90
2017-07-28T15:20:59.463Z,32.20
2017-07-28T15:23:27.014Z,32.30
2017-07-28T15:25:54.562Z,32.20
2017-07-28T15:28:22.896Z,30.70
2017-07-28T15:30:50.756Z,30.60
2017-07-28T15:33:18.314Z,29.90
2017-07-28T15:35:45.885Z,29.70
2017-07-28T15:38:13.495Z,29.90
2017-07-28T15:40:41.823Z,30.10
2017-07-28T15:43:09.682Z,30.00
2017-07-28T15:45:37.241Z,30.00
2017-07-28T15:48:04.800Z,29.50
2017-07-28T15:50:32.377Z,29.60
2017-07-28T15:52:59.935Z,29.40
2017-07-28T15:55:27.805Z,29.20
2017-07-28T15:57:55.384Z,29.20
2017-07-28T16:00:22.937Z,29.60
2017-07-28T16:02:50.519Z,30.00
2017-07-28T16:05:18.080Z,30.20
2017-07-28T16:07:47.256Z,30.70
2017-07-28T16:10:14.802Z,30.80
2017-07-28T16:12:42.454Z,30.80
2017-07-28T16:15:10.050Z,31.00
2017-07-28T16:17:37.662Z,31.20
2017-07-28T16:20:05.579Z,31.60
2017-07-28T16:22:33.097Z,31.70
2017-07-28T16:25:00.652Z,32.00
2017-07-28T16:27:28.207Z,32.50
2017-07-28T16:29:55.924Z,32.90
2017-07-28T16:32:23.773Z,33.70
2017-07-28T16:34:51.947Z,33.90
2017-07-28T16:37:19.492Z,34.80
2017-07-28T16:39:47.071Z,34.50
2017-07-28T16:42:14.625Z,34.20
2017-07-28T16:44:42.522Z,34.20
2017-07-28T16:47:10.061Z,34.50
2017-07-28T16:49:37.634Z,34.30
2017-07-28T16:52:05.229Z,34.40
2017-07-28T16:54:32.799Z,33.80
2017-07-28T16:57:00.664Z,33.40
2017-07-28T16:59:28.247Z,33.70
2017-07-28T17:01:55.797Z,33.10
2017-07-28T17:04:23.355Z,33.30
2017-07-28T17:06:50.885Z,33.00
2017-07-28T17:09:18.828Z,32.20
2017-07-28T17:11:46.370Z,31.70
2017-07-28T17:14:13.927Z,31.40
2017-07-28T17:16:41.498Z,31.20
2017-07-28T17:19:09.103Z,31.50
2017-07-28T17:21:36.964Z,31.30
2017-07-28T17:24:05.249Z,30.90
2017-07-28T17:26:33.595Z,31.00
2017-07-28T17:29:01.974Z,30.90
2017-07-28T17:31:29.557Z,30.80
2017-07-28T17:33:58.184Z,31.00
2017-07-28T17:36:25.747Z,31.00
2017-07-28T17:38:53.385Z,31.00
2017-07-28T17:41:21.007Z,31.10
2017-07-28T17:43:48.548Z,31.50
2017-07-28T17:46:16.395Z,31.60
2017-07-28T17:48:43.952Z,31.40
2017-07-28T17:51:11.551Z,31.50
2017-07-28T17:53:39.152Z,31.60
2017-07-28T17:56:07.472Z,32.60
2017-07-28T17:58:35.317Z,32.60
2017-07-28T18:01:02.842Z,33.10
2017-07-28T18:03:30.426Z,33.40
2017-07-28T18:05:58.801Z,34.30
2017-07-28T18:08:27.176Z,34.30
2017-07-28T18:10:54.985Z,34.80
2017-07-28T18:13:22.557Z,35.40
2017-07-28T18:15:50.184Z,35.70
2017-07-28T18:18:17.789Z,36.10
2017-07-28T18:20:45.388Z,36.30
2017-07-28T18:23:13.462Z,36.50
2017-07-28T18:25:41.038Z,36.80
2017-07-28T18:28:08.571Z,37.00
2017-07-28T18:30:36.968Z,37.60
2017-07-28T18:33:04.532Z,37.60
2017-07-28T18:35:32.481Z,37.90
2017-07-28T18:38:00.042Z,38.10
2017-07-28T18:40:28.374Z,38.90
2017-07-28T18:42:55.952Z,38.60
2017-07-28T18:45:23.546Z,38.80
2017-07-28T18:47:52.174Z,39.40
2017-07-28T18:50:19.820Z,39.40
2017-07-28T18:52:47.505Z,39.80
2017-07-28T18:55:15.082Z,40.00
2017-07-28T18:57:42.645Z,40.20
2017-07-28T19:00:10.520Z,40.40
2017-07-28T19:02:38.139Z,40.70
2017-07-28T19:05:05.750Z,41.10
2017-07-28T19:07:33.331Z,41.10
2017-07-28T19:10:01.637Z,41.50
2017-07-28T19:12:29.490Z,41.60
2017-07-28T19:14:57.811Z,42.00
2017-07-28T19:17:25.415Z,41.90
2017-07-28T19:19:53.855Z,42.50
2017-07-28T19:22:21.425Z,42.50
2017-07-28T19:24:49.328Z,42.70
2017-07-28T19:27:17.676Z,43.00
2017-07-28T19:29:46.205Z,43.00
2017-07-28T19:32:13.783Z,43.20
2017-07-28T19:34:41.384Z,43.40
2017-07-28T19:37:09.294Z,43.60
2017-07-28T19:39:36.919Z,43.90
2017-07-28T19:42:04.520Z,44.20
2017-07-28T19:44:32.115Z,44.30
2017-07-28T19:46:59.682Z,44.40
2017-07-28T19:49:27.603Z,44.60
2017-07-28T19:51:55.178Z,44.90
2017-07-28T19:54:22.747Z,45.10
2017-07-28T19:56:50.337Z,45.40
2017-07-28T19:59:17.972Z,45.40
2017-07-28T20:01:45.826Z,45.50
2017-07-28T20:04:13.487Z,45.70
2017-07-28T20:06:41.050Z,45.80
2017-07-28T20:09:08.677Z,45.90
2017-07-28T20:11:36.251Z,46.10
2017-07-28T20:14:05.027Z,46.20
2017-07-28T20:16:32.600Z,46.20
2017-07-28T20:19:00.955Z,46.40
2017-07-28T20:21:28.530Z,46.40
2017-07-28T20:23:56.126Z,46.70
2017-07-28T20:26:24.048Z,46.90
2017-07-28T20:28:51.613Z,47.60
2017-07-28T20:31:19.174Z,47.50
2017-07-28T20:33:46.780Z,47.50
2017-07-28T20:36:14.329Z,47.80
2017-07-28T20:38:42.346Z,47.80
2017-07-28T20:41:09.895Z,47.90
2017-07-28T20:43:37.439Z,48.20
2017-07-28T20:46:05.031Z,48.60
2017-07-28T20:48:32.583Z,48.50
2017-07-28T20:51:00.474Z,48.50
2017-07-28T20:53:28.032Z,48.70
2017-07-28T20:55:55.534Z,48.90
2017-07-28T20:58:23.966Z,49.00
2017-07-28T21:00:51.538Z,49.50
2017-07-28T21:03:19.461Z,49.90
2017-07-28T21:05:47.091Z,49.90
2017-07-28T21:08:15.433Z,50.00
2017-07-28T21:10:43.023Z,50.10
2017-07-28T21:13:11.355Z,50.60
2017-07-28T21:15:38.949Z,50.70
2017-07-28T21:18:06.490Z,51.00
2017-07-28T21:20:34.447Z,51.00
2017-07-28T21:23:02.011Z,51.30
2017-07-28T21:25:29.591Z,51.60
2017-07-28T21:27:57.147Z,51.70
2017-07-28T21:30:24.707Z,51.60
2017-07-28T21:32:53.459Z,51.70
2017-07-28T21:35:21.012Z,51.80
2017-07-28T21:37:48.568Z,51.80
2017-07-28T21:40:16.139Z,51.80
2017-07-28T21:42:43.695Z,52.00
2017-07-28T21:45:11.625Z,52.10
2017-07-28T21:47:39.189Z,52.20
2017-07-28T21:50:06.761Z,52.20
2017-07-28T21:52:34.357Z,52.30
2017-07-28T21:55:01.896Z,52.40
2017-07-28T21:57:29.738Z,52.50
2017-07-28T21:59:57.419Z,52.50
2017-07-28T22:02:25.002Z,52.70
2017-07-28T22:04:52.563Z,52.70
2017-07-28T22:07:25.908Z,52.80
2017-07-28T22:09:53.751Z,52.80
2017-07-28T22:12:21.317Z,53.00
2017-07-28T22:14:48.870Z,53.10
2017-07-28T22:17:16.486Z,53.40
2017-07-28T22:19:44.776Z,53.40
2017-07-28T22:22:13.379Z,53.40
2017-07-28T22:24:40.928Z,53.40
2017-07-28T22:27:08.500Z,53.70
2017-07-28T22:29:36.122Z,54.00
2017-07-28T22:32:03.658Z,54.00
2017-07-28T22:34:31.538Z,54.10
2017-07-28T22:36:59.105Z,54.30
2017-07-28T22:39:26.638Z,54.60
2017-07-28T22:41:54.219Z,55.00
2017-07-28T22:44:21.829Z,55.40
2017-07-28T22:46:49.737Z,55.90
2017-07-28T22:49:17.307Z,56.10
2017-07-28T22:51:44.852Z,56.50
2017-07-28T22:54:12.419Z,56.80
2017-07-28T22:56:39.973Z,57.00
2017-07-28T22:59:07.822Z,57.10
2017-07-28T23:01:35.358Z,57.30
2017-07-28T23:04:02.895Z,57.50
2017-07-28T23:06:31.274Z,57.80
2017-07-28T23:09:00.016Z,58.00
2017-07-28T23:11:27.827Z,58.00
2017-07-28T23:13:55.388Z,58.20
2017-07-28T23:16:23.792Z,59.30
2017-07-28T23:18:51.345Z,58.70
2017-07-28T23:21:18.891Z,58.70
2017-07-28T23:23:47.557Z,59.10
2017-07-28T23:26:15.100Z,59.20
2017-07-28T23:28:42.661Z,59.20
2017-07-28T23:31:10.234Z,59.40
2017-07-28T23:33:37.796Z,59.60
2017-07-28T23:36:05.664Z,59.80
2017-07-28T23:38:33.205Z,60.00
2017-07-28T23:41:00.761Z,60.10
2017-07-28T23:43:28.352Z,60.30
2017-07-28T23:45:55.890Z,60.50
2017-07-28T23:48:23.729Z,60.70
2017-07-28T23:50:51.253Z,60.70
2017-07-28T23:53:19.581Z,60.80
2017-07-28T23:55:47.159Z,60.70
2017-07-28T23:58:14.714Z,60.70
